Airfield :
LOGIN :

Register | Disclaimer

   EN    FR    IT 

 










Legend :    VFR   Marginal VFR   IFR   Intensive IFR   Very Intensive IFR
Visi :
Ceiling :
>= 8 km
>= 3000ft
5 to 8 km
1000 to 3000 ft
1500m to 5 km
500 to 1000 ft
800 to 1500m
200 to 500 ft
< 800m
< 200 ft
Symbols :   Thunderstorms  Fog  Heavy snow  Heavy precipitations  Wind > 20 kt
SIGMETs :     Misc.  Thunderstorms  Icing  Turbulence  Mountain Waves  Volcanic Ashes






- Airport Elevation : 1247 ft
- IATA code : PRG


LKPR - Praha Ruzyne

CURRENT METAR :
  • 270600Z 25009KT 9999 SCT023 M02/M04 Q1015 R24/29//95 R30/820393 NOSIG

EXPIRED METARs :
  • 270530Z 24014KT 9999 FEW046 M02/M04 Q1014 R24/29//95 R30/820393 NOSIG
  • 270500Z 23013KT 9999 FEW046 M02/M05 Q1015 R24/29//95 R30/820393 NOSIG
  • 270430Z 24011KT 9999 FEW046 M02/M05 Q1015 R24/29//95 R30/820393 NOSIG
  • 270400Z 24011KT 9999 -SN FEW014 M02/M04 Q1015 R24/29//95 R30/820393 NOSIG
  • 270353Z 24010KT 9999 -SN FEW025 M02/M04 Q1015 R24/29//95 R30/820393 RMK REG QNH 1011
  • 270330Z 24010KT 9999 FEW031 M02/M04 Q1015 R24/29//95 R30/820393 NOSIG

TAF TAF LKPR
Valid from the 27 at 06:00 until the 28 at 12:00 UTC


270500Z 2706/2812 24011KT 9999 SCT040
TEMPO 2706/2708 7000 -SN BKN020
BECMG 2721/2723 20010KT 3000 -SN BR SCT007 BKN015
TEMPO 2803/2812 21012G24KT



MET'MAP, your aeronautical weather chart ! - Copyright ORBIFLY December 2007 - Disclaimer

ORBIFLY MET'MAP TEAM :

Programming & Development : Alexandra Zaïnal
Concept & original design : Baudouin d'Aumeries
Assistance for programming : Marc-Olivier Méhu
Technical & hardware support : Manuel Goepfert

Contact : metmap@orbifly.com




SOURCES & CREDITS :

   NOAA